sensor_id;sensor_type;location;lat;lon;timestamp;temperature;humidity
41722;DHT22;27407;24.142;-110.310;2023-10-08T00:00:46;29.70;99.90
41722;DHT22;27407;24.142;-110.310;2023-10-08T00:03:16;29.60;99.90
41722;DHT22;27407;24.142;-110.310;2023-10-08T00:05:43;29.40;99.90
41722;DHT22;27407;24.142;-110.310;2023-10-08T00:08:12;29.30;99.90
41722;DHT22;27407;24.142;-110.310;2023-10-08T00:10:42;29.20;99.90
41722;DHT22;27407;24.142;-110.310;2023-10-08T00:13:11;29.20;99.90
41722;DHT22;27407;24.142;-110.310;2023-10-08T00:15:42;29.30;99.90
41722;DHT22;27407;24.142;-110.310;2023-10-08T00:18:22;29.40;99.90
41722;DHT22;27407;24.142;-110.310;2023-10-08T00:20:50;29.50;99.90
41722;DHT22;27407;24.142;-110.310;2023-10-08T00:23:43;29.50;99.90
41722;DHT22;27407;24.142;-110.310;2023-10-08T00:26:21;29.50;99.90
41722;DHT22;27407;24.142;-110.310;2023-10-08T00:29:00;29.50;99.90
41722;DHT22;27407;24.142;-110.310;2023-10-08T00:31:27;29.60;99.90
41722;DHT22;27407;24.142;-110.310;2023-10-08T00:34:02;29.70;99.90
41722;DHT22;27407;24.142;-110.310;2023-10-08T00:36:31;29.80;99.90
41722;DHT22;27407;24.142;-110.310;2023-10-08T00:39:00;29.80;99.90
41722;DHT22;27407;24.142;-110.310;2023-10-08T00:41:34;29.60;99.90
41722;DHT22;27407;24.142;-110.310;2023-10-08T00:44:00;29.70;99.90
41722;DHT22;27407;24.142;-110.310;2023-10-08T00:46:27;29.70;99.90
41722;DHT22;27407;24.142;-110.310;2023-10-08T00:49:02;29.80;99.90
41722;DHT22;27407;24.142;-110.310;2023-10-08T00:51:54;29.90;99.90
41722;DHT22;27407;24.142;-110.310;2023-10-08T00:54:28;29.90;99.90
41722;DHT22;27407;24.142;-110.310;2023-10-08T00:56:59;29.90;99.90
41722;DHT22;27407;24.142;-110.310;2023-10-08T00:59:32;29.90;99.90
41722;DHT22;27407;24.142;-110.310;2023-10-08T01:02:16;29.90;99.90
41722;DHT22;27407;24.142;-110.310;2023-10-08T01:04:46;29.90;99.90
41722;DHT22;27407;24.142;-110.310;2023-10-08T01:07:14;30.00;99.90
41722;DHT22;27407;24.142;-110.310;2023-10-08T01:09:44;30.00;99.90
41722;DHT22;27407;24.142;-110.310;2023-10-08T01:12:23;30.00;99.90
41722;DHT22;27407;24.142;-110.310;2023-10-08T01:14:59;29.90;99.90
41722;DHT22;27407;24.142;-110.310;2023-10-08T01:17:52;29.80;99.90
41722;DHT22;27407;24.142;-110.310;2023-10-08T01:20:31;29.80;99.90
41722;DHT22;27407;24.142;-110.310;2023-10-08T01:23:10;29.70;99.90
41722;DHT22;27407;24.142;-110.310;2023-10-08T01:25:45;29.60;99.90
41722;DHT22;27407;24.142;-110.310;2023-10-08T01:28:21;29.60;99.90
41722;DHT22;27407;24.142;-110.310;2023-10-08T01:30:57;29.60;99.90
41722;DHT22;27407;24.142;-110.310;2023-10-08T01:33:26;29.60;99.90
41722;DHT22;27407;24.142;-110.310;2023-10-08T01:35:57;29.70;99.90
41722;DHT22;27407;24.142;-110.310;2023-10-08T01:38:30;29.70;99.90
41722;DHT22;27407;24.142;-110.310;2023-10-08T01:40:59;29.60;99.90
41722;DHT22;27407;24.142;-110.310;2023-10-08T01:43:31;29.60;99.90
41722;DHT22;27407;24.142;-110.310;2023-10-08T01:45:58;29.60;99.90
41722;DHT22;27407;24.142;-110.310;2023-10-08T01:48:25;29.60;99.90
41722;DHT22;27407;24.142;-110.310;2023-10-08T01:51:00;29.60;99.90
41722;DHT22;27407;24.142;-110.310;2023-10-08T01:53:36;29.60;99.90
41722;DHT22;27407;24.142;-110.310;2023-10-08T01:56:02;29.60;99.90
41722;DHT22;27407;24.142;-110.310;2023-10-08T01:58:30;29.60;99.90
41722;DHT22;27407;24.142;-110.310;2023-10-08T02:00:59;29.60;99.90
41722;DHT22;27407;24.142;-110.310;2023-10-08T02:03:27;29.50;99.90
41722;DHT22;27407;24.142;-110.310;2023-10-08T02:05:54;29.60;99.90
41722;DHT22;27407;24.142;-110.310;2023-10-08T02:08:25;29.60;99.90
41722;DHT22;27407;24.142;-110.310;2023-10-08T02:10:56;29.60;99.90
41722;DHT22;27407;24.142;-110.310;2023-10-08T02:13:22;29.60;99.90
41722;DHT22;27407;24.142;-110.310;2023-10-08T02:15:50;29.60;99.90
41722;DHT22;27407;24.142;-110.310;2023-10-08T02:18:21;29.50;99.90
41722;DHT22;27407;24.142;-110.310;2023-10-08T02:20:51;29.60;99.90
41722;DHT22;27407;24.142;-110.310;2023-10-08T02:23:18;29.60;99.90
41722;DHT22;27407;24.142;-110.310;2023-10-08T02:25:48;29.70;99.90
41722;DHT22;27407;24.142;-110.310;2023-10-08T02:28:15;29.70;99.90
41722;DHT22;27407;24.142;-110.310;2023-10-08T02:30:42;29.80;99.90
41722;DHT22;27407;24.142;-110.310;2023-10-08T02:33:09;29.80;99.90
41722;DHT22;27407;24.142;-110.310;2023-10-08T02:35:42;30.00;99.90
41722;DHT22;27407;24.142;-110.310;2023-10-08T02:38:13;30.10;99.90
41722;DHT22;27407;24.142;-110.310;2023-10-08T02:40:42;30.10;99.90
41722;DHT22;27407;24.142;-110.310;2023-10-08T02:43:15;30.10;99.90
41722;DHT22;27407;24.142;-110.310;2023-10-08T02:45:42;30.10;99.90
41722;DHT22;27407;24.142;-110.310;2023-10-08T02:48:13;30.10;99.90
41722;DHT22;27407;24.142;-110.310;2023-10-08T02:50:43;30.10;99.90
41722;DHT22;27407;24.142;-110.310;2023-10-08T02:53:11;30.20;99.90
41722;DHT22;27407;24.142;-110.310;2023-10-08T02:55:41;30.10;99.90
41722;DHT22;27407;24.142;-110.310;2023-10-08T02:58:11;30.10;99.90
41722;DHT22;27407;24.142;-110.310;2023-10-08T03:00:45;30.00;99.90
41722;DHT22;27407;24.142;-110.310;2023-10-08T03:03:16;30.00;99.90
41722;DHT22;27407;24.142;-110.310;2023-10-08T03:05:53;30.10;99.90
41722;DHT22;27407;24.142;-110.310;2023-10-08T03:08:22;30.10;99.90
41722;DHT22;27407;24.142;-110.310;2023-10-08T03:10:53;30.10;99.90
41722;DHT22;27407;24.142;-110.310;2023-10-08T03:13:24;30.10;99.90
41722;DHT22;27407;24.142;-110.310;2023-10-08T03:15:52;30.10;99.90
41722;DHT22;27407;24.142;-110.310;2023-10-08T03:18:28;30.10;99.90
41722;DHT22;27407;24.142;-110.310;2023-10-08T03:21:09;30.20;99.90
41722;DHT22;27407;24.142;-110.310;2023-10-08T03:23:59;30.10;99.90
41722;DHT22;27407;24.142;-110.310;2023-10-08T03:26:32;30.00;99.90
41722;DHT22;27407;24.142;-110.310;2023-10-08T03:29:01;30.00;99.90
41722;DHT22;27407;24.142;-110.310;2023-10-08T03:31:31;29.90;99.90
41722;DHT22;27407;24.142;-110.310;2023-10-08T03:34:19;29.90;99.90
41722;DHT22;27407;24.142;-110.310;2023-10-08T03:36:46;29.80;99.90
41722;DHT22;27407;24.142;-110.310;2023-10-08T03:39:16;29.80;99.90
41722;DHT22;27407;24.142;-110.310;2023-10-08T03:41:46;29.90;99.90
41722;DHT22;27407;24.142;-110.310;2023-10-08T03:44:32;29.90;99.90
41722;DHT22;27407;24.142;-110.310;2023-10-08T03:47:03;29.80;99.90
41722;DHT22;27407;24.142;-110.310;2023-10-08T03:49:36;29.80;99.90
41722;DHT22;27407;24.142;-110.310;2023-10-08T03:52:10;29.80;99.90
41722;DHT22;27407;24.142;-110.310;2023-10-08T03:54:39;29.70;99.90
41722;DHT22;27407;24.142;-110.310;2023-10-08T03:57:14;29.60;99.90
41722;DHT22;27407;24.142;-110.310;2023-10-08T03:59:51;29.50;99.90
41722;DHT22;27407;24.142;-110.310;2023-10-08T04:02:24;29.30;99.90
41722;DHT22;27407;24.142;-110.310;2023-10-08T04:05:17;29.20;99.90
41722;DHT22;27407;24.142;-110.310;2023-10-08T04:07:46;29.20;99.90
41722;DHT22;27407;24.142;-110.310;2023-10-08T04:10:29;29.00;99.90
41722;DHT22;27407;24.142;-110.310;2023-10-08T04:13:16;28.90;99.90
41722;DHT22;27407;24.142;-110.310;2023-10-08T04:15:42;28.90;99.90
41722;DHT22;27407;24.142;-110.310;2023-10-08T04:18:11;28.90;99.90
41722;DHT22;27407;24.142;-110.310;2023-10-08T04:20:39;28.90;99.90
41722;DHT22;27407;24.142;-110.310;2023-10-08T04:23:25;28.80;99.90
41722;DHT22;27407;24.142;-110.310;2023-10-08T04:25:51;28.80;99.90
41722;DHT22;27407;24.142;-110.310;2023-10-08T04:28:22;28.80;99.90
41722;DHT22;27407;24.142;-110.310;2023-10-08T04:30:48;28.80;99.90
41722;DHT22;27407;24.142;-110.310;2023-10-08T04:33:16;28.80;99.90
41722;DHT22;27407;24.142;-110.310;2023-10-08T04:35:46;28.80;99.90
41722;DHT22;27407;24.142;-110.310;2023-10-08T04:38:25;28.90;99.90
41722;DHT22;27407;24.142;-110.310;2023-10-08T04:40:52;28.80;99.90
41722;DHT22;27407;24.142;-110.310;2023-10-08T04:43:23;28.80;99.90
41722;DHT22;27407;24.142;-110.310;2023-10-08T04:46:04;28.80;99.90
41722;DHT22;27407;24.142;-110.310;2023-10-08T04:48:34;28.80;99.90
41722;DHT22;27407;24.142;-110.310;2023-10-08T04:51:02;28.80;99.90
41722;DHT22;27407;24.142;-110.310;2023-10-08T04:53:31;28.80;99.90
41722;DHT22;27407;24.142;-110.310;2023-10-08T04:56:02;28.90;99.90
41722;DHT22;27407;24.142;-110.310;2023-10-08T04:58:35;28.90;99.90
41722;DHT22;27407;24.142;-110.310;2023-10-08T05:01:07;28.90;99.90
41722;DHT22;27407;24.142;-110.310;2023-10-08T05:03:47;28.90;99.90
41722;DHT22;27407;24.142;-110.310;2023-10-08T05:06:36;28.90;99.90
41722;DHT22;27407;24.142;-110.310;2023-10-08T05:09:04;28.90;99.90
41722;DHT22;27407;24.142;-110.310;2023-10-08T05:11:52;28.90;99.90
41722;DHT22;27407;24.142;-110.310;2023-10-08T05:14:37;28.90;99.90
41722;DHT22;27407;24.142;-110.310;2023-10-08T05:17:21;28.90;99.90
41722;DHT22;27407;24.142;-110.310;2023-10-08T05:19:49;28.90;99.90
41722;DHT22;27407;24.142;-110.310;2023-10-08T05:22:33;28.90;99.90
41722;DHT22;27407;24.142;-110.310;2023-10-08T05:25:20;28.80;99.90
41722;DHT22;27407;24.142;-110.310;2023-10-08T05:27:47;28.80;99.90
41722;DHT22;27407;24.142;-110.310;2023-10-08T05:32:44;28.80;99.90
41722;DHT22;27407;24.142;-110.310;2023-10-08T05:35:30;28.80;99.90
41722;DHT22;27407;24.142;-110.310;2023-10-08T05:38:18;28.80;99.90
41722;DHT22;27407;24.142;-110.310;2023-10-08T05:40:57;28.80;99.90
41722;DHT22;27407;24.142;-110.310;2023-10-08T05:43:29;28.80;99.90
41722;DHT22;27407;24.142;-110.310;2023-10-08T05:46:05;28.80;99.90
41722;DHT22;27407;24.142;-110.310;2023-10-08T05:48:59;28.90;99.90
41722;DHT22;27407;24.142;-110.310;2023-10-08T05:51:33;28.90;99.90
41722;DHT22;27407;24.142;-110.310;2023-10-08T05:54:16;28.90;99.90
41722;DHT22;27407;24.142;-110.310;2023-10-08T05:57:00;28.90;99.90
41722;DHT22;27407;24.142;-110.310;2023-10-08T05:59:36;28.80;99.90
41722;DHT22;27407;24.142;-110.310;2023-10-08T06:02:28;28.80;99.90
41722;DHT22;27407;24.142;-110.310;2023-10-08T06:05:06;28.90;99.90
41722;DHT22;27407;24.142;-110.310;2023-10-08T06:07:47;28.90;99.90
41722;DHT22;27407;24.142;-110.310;2023-10-08T06:10:27;28.90;99.90
41722;DHT22;27407;24.142;-110.310;2023-10-08T06:13:03;28.80;99.90
41722;DHT22;27407;24.142;-110.310;2023-10-08T06:15:45;28.80;99.90
41722;DHT22;27407;24.142;-110.310;2023-10-08T06:18:19;28.70;99.90
41722;DHT22;27407;24.142;-110.310;2023-10-08T06:20:47;28.70;99.90
41722;DHT22;27407;24.142;-110.310;2023-10-08T06:23:16;28.70;99.90
41722;DHT22;27407;24.142;-110.310;2023-10-08T06:25:50;28.70;99.90
41722;DHT22;27407;24.142;-110.310;2023-10-08T06:28:44;28.70;99.90
41722;DHT22;27407;24.142;-110.310;2023-10-08T06:31:11;28.70;99.90
41722;DHT22;27407;24.142;-110.310;2023-10-08T06:33:42;28.70;99.90
41722;DHT22;27407;24.142;-110.310;2023-10-08T06:36:09;28.60;99.90
41722;DHT22;27407;24.142;-110.310;2023-10-08T06:38:40;28.60;99.90
41722;DHT22;27407;24.142;-110.310;2023-10-08T06:41:08;28.60;99.90
41722;DHT22;27407;24.142;-110.310;2023-10-08T06:43:37;28.60;99.90
41722;DHT22;27407;24.142;-110.310;2023-10-08T06:46:05;28.60;99.90
41722;DHT22;27407;24.142;-110.310;2023-10-08T06:48:41;28.60;99.90
41722;DHT22;27407;24.142;-110.310;2023-10-08T06:51:12;28.60;99.90
41722;DHT22;27407;24.142;-110.310;2023-10-08T06:53:43;28.60;99.90
41722;DHT22;27407;24.142;-110.310;2023-10-08T06:56:17;28.50;99.90
41722;DHT22;27407;24.142;-110.310;2023-10-08T06:58:46;28.40;99.90
41722;DHT22;27407;24.142;-110.310;2023-10-08T07:01:20;28.40;99.90
41722;DHT22;27407;24.142;-110.310;2023-10-08T07:04:08;28.30;99.90
41722;DHT22;27407;24.142;-110.310;2023-10-08T07:06:44;28.30;99.90
41722;DHT22;27407;24.142;-110.310;2023-10-08T07:09:13;28.30;99.90
41722;DHT22;27407;24.142;-110.310;2023-10-08T07:11:52;28.20;99.90
41722;DHT22;27407;24.142;-110.310;2023-10-08T07:14:28;28.20;99.90
41722;DHT22;27407;24.142;-110.310;2023-10-08T07:16:59;28.20;99.90
41722;DHT22;27407;24.142;-110.310;2023-10-08T07:19:32;28.10;99.90
41722;DHT22;27407;24.142;-110.310;2023-10-08T07:22:07;28.10;99.90
41722;DHT22;27407;24.142;-110.310;2023-10-08T07:24:54;28.20;99.90
41722;DHT22;27407;24.142;-110.310;2023-10-08T07:27:21;28.20;99.90
41722;DHT22;27407;24.142;-110.310;2023-10-08T07:29:50;28.20;99.90
41722;DHT22;27407;24.142;-110.310;2023-10-08T07:32:21;28.10;99.90
41722;DHT22;27407;24.142;-110.310;2023-10-08T07:34:47;28.10;99.90
41722;DHT22;27407;24.142;-110.310;2023-10-08T07:37:23;28.10;99.90
41722;DHT22;27407;24.142;-110.310;2023-10-08T07:39:50;28.10;99.90
41722;DHT22;27407;24.142;-110.310;2023-10-08T07:42:20;28.10;99.90
41722;DHT22;27407;24.142;-110.310;2023-10-08T07:44:47;28.20;99.90
41722;DHT22;27407;24.142;-110.310;2023-10-08T07:47:16;28.20;99.90
41722;DHT22;27407;24.142;-110.310;2023-10-08T07:49:43;28.20;99.90
41722;DHT22;27407;24.142;-110.310;2023-10-08T07:52:09;28.20;99.90
41722;DHT22;27407;24.142;-110.310;2023-10-08T07:54:41;28.10;99.90
41722;DHT22;27407;24.142;-110.310;2023-10-08T07:57:08;28.10;99.90
41722;DHT22;27407;24.142;-110.310;2023-10-08T07:59:46;28.10;99.90
41722;DHT22;27407;24.142;-110.310;2023-10-08T08:02:14;28.00;99.90
41722;DHT22;27407;24.142;-110.310;2023-10-08T08:04:42;28.00;99.90
41722;DHT22;27407;24.142;-110.310;2023-10-08T08:07:13;27.90;99.90
41722;DHT22;27407;24.142;-110.310;2023-10-08T08:09:46;27.90;99.90
41722;DHT22;27407;24.142;-110.310;2023-10-08T08:12:25;28.00;99.90
41722;DHT22;27407;24.142;-110.310;2023-10-08T08:14:52;28.00;99.90
41722;DHT22;27407;24.142;-110.310;2023-10-08T08:17:20;28.00;99.90
41722;DHT22;27407;24.142;-110.310;2023-10-08T08:19:49;28.00;99.90
41722;DHT22;27407;24.142;-110.310;2023-10-08T08:22:20;28.00;99.90
41722;DHT22;27407;24.142;-110.310;2023-10-08T08:24:51;27.90;99.90
41722;DHT22;27407;24.142;-110.310;2023-10-08T08:27:45;27.90;99.90
41722;DHT22;27407;24.142;-110.310;2023-10-08T08:30:15;27.90;99.90
41722;DHT22;27407;24.142;-110.310;2023-10-08T08:32:45;28.00;99.90
41722;DHT22;27407;24.142;-110.310;2023-10-08T08:35:15;28.00;99.90
41722;DHT22;27407;24.142;-110.310;2023-10-08T08:37:46;27.90;99.90
41722;DHT22;27407;24.142;-110.310;2023-10-08T08:40:19;27.90;99.90
41722;DHT22;27407;24.142;-110.310;2023-10-08T08:42:51;27.90;99.90
41722;DHT22;27407;24.142;-110.310;2023-10-08T08:45:24;27.90;99.90
41722;DHT22;27407;24.142;-110.310;2023-10-08T08:47:53;27.80;99.90
41722;DHT22;27407;24.142;-110.310;2023-10-08T08:50:20;27.80;99.90
41722;DHT22;27407;24.142;-110.310;2023-10-08T08:52:47;27.90;99.90
41722;DHT22;27407;24.142;-110.310;2023-10-08T08:55:14;27.90;99.90
41722;DHT22;27407;24.142;-110.310;2023-10-08T08:57:43;27.90;99.90
41722;DHT22;27407;24.142;-110.310;2023-10-08T09:00:14;27.90;99.90
41722;DHT22;27407;24.142;-110.310;2023-10-08T09:02:43;27.90;99.90
41722;DHT22;27407;24.142;-110.310;2023-10-08T09:05:11;27.80;99.90
41722;DHT22;27407;24.142;-110.310;2023-10-08T09:10:32;27.80;99.90
41722;DHT22;27407;24.142;-110.310;2023-10-08T09:13:04;27.80;99.90
41722;DHT22;27407;24.142;-110.310;2023-10-08T09:15:32;27.80;99.90
41722;DHT22;27407;24.142;-110.310;2023-10-08T09:17:59;27.80;99.90
41722;DHT22;27407;24.142;-110.310;2023-10-08T09:20:37;27.80;99.90
41722;DHT22;27407;24.142;-110.310;2023-10-08T09:23:16;27.90;99.90
41722;DHT22;27407;24.142;-110.310;2023-10-08T09:25:48;27.90;99.90
41722;DHT22;27407;24.142;-110.310;2023-10-08T09:28:25;27.90;99.90
41722;DHT22;27407;24.142;-110.310;2023-10-08T09:30:52;27.80;99.90
41722;DHT22;27407;24.142;-110.310;2023-10-08T09:33:21;27.80;99.90
41722;DHT22;27407;24.142;-110.310;2023-10-08T09:35:48;27.70;99.90
41722;DHT22;27407;24.142;-110.310;2023-10-08T09:38:15;27.70;99.90
41722;DHT22;27407;24.142;-110.310;2023-10-08T09:40:49;27.60;99.90
41722;DHT22;27407;24.142;-110.310;2023-10-08T09:43:16;27.60;99.90
41722;DHT22;27407;24.142;-110.310;2023-10-08T09:45:52;27.60;99.90
41722;DHT22;27407;24.142;-110.310;2023-10-08T09:48:20;27.60;99.90
41722;DHT22;27407;24.142;-110.310;2023-10-08T09:50:49;27.60;99.90
41722;DHT22;27407;24.142;-110.310;2023-10-08T09:53:22;27.60;99.90
41722;DHT22;27407;24.142;-110.310;2023-10-08T09:55:56;27.60;99.90
41722;DHT22;27407;24.142;-110.310;2023-10-08T09:58:25;27.70;99.90
41722;DHT22;27407;24.142;-110.310;2023-10-08T10:00:55;27.70;99.90
41722;DHT22;27407;24.142;-110.310;2023-10-08T10:03:23;27.70;99.90
41722;DHT22;27407;24.142;-110.310;2023-10-08T10:05:51;27.70;99.90
41722;DHT22;27407;24.142;-110.310;2023-10-08T10:08:19;27.80;99.90
41722;DHT22;27407;24.142;-110.310;2023-10-08T10:10:58;27.80;99.90
41722;DHT22;27407;24.142;-110.310;2023-10-08T10:13:28;27.70;99.90
41722;DHT22;27407;24.142;-110.310;2023-10-08T10:15:57;27.70;99.90
41722;DHT22;27407;24.142;-110.310;2023-10-08T10:20:56;27.80;99.90
41722;DHT22;27407;24.142;-110.310;2023-10-08T10:23:39;27.80;99.90
41722;DHT22;27407;24.142;-110.310;2023-10-08T10:31:46;27.70;99.90
41722;DHT22;27407;24.142;-110.310;2023-10-08T10:34:14;27.70;99.90
41722;DHT22;27407;24.142;-110.310;2023-10-08T10:36:46;27.60;99.90
41722;DHT22;27407;24.142;-110.310;2023-10-08T10:39:17;27.60;99.90
41722;DHT22;27407;24.142;-110.310;2023-10-08T10:41:53;27.70;99.90
41722;DHT22;27407;24.142;-110.310;2023-10-08T10:44:31;27.70;99.90
41722;DHT22;27407;24.142;-110.310;2023-10-08T10:46:59;27.70;99.90
41722;DHT22;27407;24.142;-110.310;2023-10-08T10:49:46;27.60;99.90
41722;DHT22;27407;24.142;-110.310;2023-10-08T10:52:41;27.70;99.90
41722;DHT22;27407;24.142;-110.310;2023-10-08T10:55:18;27.70;99.90
41722;DHT22;27407;24.142;-110.310;2023-10-08T10:57:49;27.70;99.90
41722;DHT22;27407;24.142;-110.310;2023-10-08T11:00:25;27.70;99.90
41722;DHT22;27407;24.142;-110.310;2023-10-08T11:02:56;27.70;99.90
41722;DHT22;27407;24.142;-110.310;2023-10-08T11:05:29;27.70;99.90
41722;DHT22;27407;24.142;-110.310;2023-10-08T11:07:56;27.60;99.90
41722;DHT22;27407;24.142;-110.310;2023-10-08T11:10:39;27.60;99.90
41722;DHT22;27407;24.142;-110.310;2023-10-08T11:13:25;27.60;99.90
41722;DHT22;27407;24.142;-110.310;2023-10-08T11:15:54;27.60;99.90
41722;DHT22;27407;24.142;-110.310;2023-10-08T11:18:26;27.60;99.90
41722;DHT22;27407;24.142;-110.310;2023-10-08T11:21:06;27.60;99.90
41722;DHT22;27407;24.142;-110.310;2023-10-08T11:23:47;27.60;99.90
41722;DHT22;27407;24.142;-110.310;2023-10-08T11:26:20;27.60;99.90
41722;DHT22;27407;24.142;-110.310;2023-10-08T11:28:58;27.60;99.90
41722;DHT22;27407;24.142;-110.310;2023-10-08T11:31:28;27.60;99.90
41722;DHT22;27407;24.142;-110.310;2023-10-08T11:34:02;27.60;99.90
41722;DHT22;27407;24.142;-110.310;2023-10-08T11:36:36;27.60;99.90
41722;DHT22;27407;24.142;-110.310;2023-10-08T11:39:15;27.60;99.90
41722;DHT22;27407;24.142;-110.310;2023-10-08T11:42:00;27.60;99.90
41722;DHT22;27407;24.142;-110.310;2023-10-08T11:44:33;27.60;99.90
41722;DHT22;27407;24.142;-110.310;2023-10-08T11:47:03;27.50;99.90
41722;DHT22;27407;24.142;-110.310;2023-10-08T11:49:47;27.50;99.90
41722;DHT22;27407;24.142;-110.310;2023-10-08T11:52:16;27.50;99.90
41722;DHT22;27407;24.142;-110.310;2023-10-08T11:54:47;27.50;99.90
41722;DHT22;27407;24.142;-110.310;2023-10-08T11:57:15;27.50;99.90
41722;DHT22;27407;24.142;-110.310;2023-10-08T11:59:48;27.50;99.90
41722;DHT22;27407;24.142;-110.310;2023-10-08T12:02:14;27.40;99.90
41722;DHT22;27407;24.142;-110.310;2023-10-08T12:04:43;27.40;99.90
41722;DHT22;27407;24.142;-110.310;2023-10-08T12:07:13;27.40;99.90
41722;DHT22;27407;24.142;-110.310;2023-10-08T12:09:44;27.40;99.90
41722;DHT22;27407;24.142;-110.310;2023-10-08T12:12:14;27.40;99.90
41722;DHT22;27407;24.142;-110.310;2023-10-08T12:14:41;27.40;99.90
41722;DHT22;27407;24.142;-110.310;2023-10-08T12:17:11;27.40;99.90
41722;DHT22;27407;24.142;-110.310;2023-10-08T12:19:38;27.30;99.90
41722;DHT22;27407;24.142;-110.310;2023-10-08T12:22:09;27.30;99.90
41722;DHT22;27407;24.142;-110.310;2023-10-08T12:24:35;27.20;99.90
41722;DHT22;27407;24.142;-110.310;2023-10-08T12:27:04;27.10;99.90
41722;DHT22;27407;24.142;-110.310;2023-10-08T12:29:30;27.00;99.90
41722;DHT22;27407;24.142;-110.310;2023-10-08T12:31:59;27.10;99.90
41722;DHT22;27407;24.142;-110.310;2023-10-08T12:34:26;27.10;99.90
41722;DHT22;27407;24.142;-110.310;2023-10-08T12:36:55;27.00;99.90
41722;DHT22;27407;24.142;-110.310;2023-10-08T12:39:22;27.00;99.90
41722;DHT22;27407;24.142;-110.310;2023-10-08T12:41:54;27.00;99.90
41722;DHT22;27407;24.142;-110.310;2023-10-08T12:44:23;27.00;99.90
41722;DHT22;27407;24.142;-110.310;2023-10-08T12:46:50;27.10;99.90
41722;DHT22;27407;24.142;-110.310;2023-10-08T12:49:17;27.10;99.90
41722;DHT22;27407;24.142;-110.310;2023-10-08T12:51:47;27.10;99.90
41722;DHT22;27407;24.142;-110.310;2023-10-08T12:54:13;27.00;99.90
41722;DHT22;27407;24.142;-110.310;2023-10-08T12:56:47;27.00;99.90
41722;DHT22;27407;24.142;-110.310;2023-10-08T12:59:15;26.90;99.90
41722;DHT22;27407;24.142;-110.310;2023-10-08T13:01:49;27.00;99.90
41722;DHT22;27407;24.142;-110.310;2023-10-08T13:04:27;27.10;99.90
41722;DHT22;27407;24.142;-110.310;2023-10-08T13:06:55;27.10;99.90
41722;DHT22;27407;24.142;-110.310;2023-10-08T13:09:27;27.00;99.90
41722;DHT22;27407;24.142;-110.310;2023-10-08T13:11:57;27.00;99.90
41722;DHT22;27407;24.142;-110.310;2023-10-08T13:14:25;27.10;99.90
41722;DHT22;27407;24.142;-110.310;2023-10-08T13:16:52;27.00;99.90
41722;DHT22;27407;24.142;-110.310;2023-10-08T13:19:22;27.10;99.90
41722;DHT22;27407;24.142;-110.310;2023-10-08T13:21:52;27.10;99.90
41722;DHT22;27407;24.142;-110.310;2023-10-08T13:24:19;27.20;99.90
41722;DHT22;27407;24.142;-110.310;2023-10-08T13:26:46;27.20;99.90
41722;DHT22;27407;24.142;-110.310;2023-10-08T13:29:14;27.20;99.90
41722;DHT22;27407;24.142;-110.310;2023-10-08T13:31:44;27.30;99.90
41722;DHT22;27407;24.142;-110.310;2023-10-08T13:34:12;27.30;99.90
41722;DHT22;27407;24.142;-110.310;2023-10-08T13:36:39;27.30;99.90
41722;DHT22;27407;24.142;-110.310;2023-10-08T13:39:06;27.40;99.90
41722;DHT22;27407;24.142;-110.310;2023-10-08T13:41:44;27.40;99.90
41722;DHT22;27407;24.142;-110.310;2023-10-08T13:44:14;27.30;99.90
41722;DHT22;27407;24.142;-110.310;2023-10-08T13:46:41;27.30;99.90
41722;DHT22;27407;24.142;-110.310;2023-10-08T13:49:26;27.30;99.90
41722;DHT22;27407;24.142;-110.310;2023-10-08T13:51:53;27.40;99.90
41722;DHT22;27407;24.142;-110.310;2023-10-08T13:54:22;27.40;99.90
41722;DHT22;27407;24.142;-110.310;2023-10-08T13:56:56;27.50;99.90
41722;DHT22;27407;24.142;-110.310;2023-10-08T13:59:22;27.50;99.90
41722;DHT22;27407;24.142;-110.310;2023-10-08T14:01:50;27.60;99.90
41722;DHT22;27407;24.142;-110.310;2023-10-08T14:04:17;27.70;99.90
41722;DHT22;27407;24.142;-110.310;2023-10-08T14:06:47;27.80;99.90
41722;DHT22;27407;24.142;-110.310;2023-10-08T14:09:21;27.90;99.90
41722;DHT22;27407;24.142;-110.310;2023-10-08T14:11:57;27.90;99.90
41722;DHT22;27407;24.142;-110.310;2023-10-08T14:14:23;28.10;99.90
41722;DHT22;27407;24.142;-110.310;2023-10-08T14:16:56;28.20;99.90
41722;DHT22;27407;24.142;-110.310;2023-10-08T14:19:29;28.30;99.90
41722;DHT22;27407;24.142;-110.310;2023-10-08T14:22:09;28.40;99.90
41722;DHT22;27407;24.142;-110.310;2023-10-08T14:24:40;28.60;99.90
41722;DHT22;27407;24.142;-110.310;2023-10-08T14:27:07;28.70;99.90
41722;DHT22;27407;24.142;-110.310;2023-10-08T14:29:37;28.80;99.90
41722;DHT22;27407;24.142;-110.310;2023-10-08T14:32:09;29.00;99.90
41722;DHT22;27407;24.142;-110.310;2023-10-08T14:34:41;29.10;99.90
41722;DHT22;27407;24.142;-110.310;2023-10-08T14:37:21;29.20;99.90
41722;DHT22;27407;24.142;-110.310;2023-10-08T14:40:06;29.30;99.90
41722;DHT22;27407;24.142;-110.310;2023-10-08T14:42:52;29.40;99.90
41722;DHT22;27407;24.142;-110.310;2023-10-08T14:45:25;29.60;99.90
41722;DHT22;27407;24.142;-110.310;2023-10-08T14:47:56;29.70;99.90
41722;DHT22;27407;24.142;-110.310;2023-10-08T14:50:24;29.80;99.90
41722;DHT22;27407;24.142;-110.310;2023-10-08T14:52:54;29.90;99.90
41722;DHT22;27407;24.142;-110.310;2023-10-08T14:55:21;30.10;99.90
41722;DHT22;27407;24.142;-110.310;2023-10-08T14:57:51;30.20;99.90
41722;DHT22;27407;24.142;-110.310;2023-10-08T15:00:20;30.40;99.90
41722;DHT22;27407;24.142;-110.310;2023-10-08T15:02:57;30.50;99.90
41722;DHT22;27407;24.142;-110.310;2023-10-08T15:05:26;30.50;99.90
41722;DHT22;27407;24.142;-110.310;2023-10-08T15:07:52;30.70;99.90
41722;DHT22;27407;24.142;-110.310;2023-10-08T15:10:19;30.80;99.90
41722;DHT22;27407;24.142;-110.310;2023-10-08T15:12:49;30.70;99.90
41722;DHT22;27407;24.142;-110.310;2023-10-08T15:15:18;30.70;99.90
41722;DHT22;27407;24.142;-110.310;2023-10-08T15:17:48;30.80;99.90
41722;DHT22;27407;24.142;-110.310;2023-10-08T15:20:16;30.80;99.90
41722;DHT22;27407;24.142;-110.310;2023-10-08T15:22:43;31.00;99.90
41722;DHT22;27407;24.142;-110.310;2023-10-08T15:25:11;31.20;99.90
41722;DHT22;27407;24.142;-110.310;2023-10-08T15:27:42;31.10;99.90
41722;DHT22;27407;24.142;-110.310;2023-10-08T15:30:12;31.20;99.90
41722;DHT22;27407;24.142;-110.310;2023-10-08T15:32:42;31.40;99.90